Time;durP1;ratioP1;P1;durP2;ratioP2;P2;SDS_P1;SDS_P2;PMS_P1;PMS_P2;Temp;Humidity;BMP_temperature;BMP_pressure;BME280_temperature;BME280_humidity;BME280_pressure;Samples;Min_cycle;Max_cycle;Signal;HPM_P1;HPM_P2
2022/06/28 00:03:35;;;;;;;6.77;3.50;;;24.00;1.00;;;;;;8363861;28;20215;-62
2022/06/28 00:07:36;;;;;;;4.70;3.17;;;24.00;1.00;;;;;;8370327;28;20191;-66
2022/06/28 00:11:37;;;;;;;4.80;4.23;;;24.00;1.00;;;;;;8367908;28;20185;-65
2022/06/28 00:19:58;;;;;;;4.40;4.00;;;24.10;1.00;;;;;;8379697;28;20191;-66
2022/06/28 00:23:58;;;;;;;5.60;4.23;;;24.00;1.00;;;;;;8374468;28;20209;-66
2022/06/28 00:27:59;;;;;;;6.47;4.60;;;23.90;1.00;;;;;;8379855;28;20194;-65
2022/06/28 00:32:00;;;;;;;5.60;5.00;;;23.90;1.00;;;;;;8376006;28;20174;-65
2022/06/28 00:36:01;;;;;;;5.20;4.70;;;23.80;1.00;;;;;;8379770;28;20184;-67
2022/06/28 00:40:02;;;;;;;5.30;4.80;;;23.90;1.00;;;;;;8371608;28;20239;-67
2022/06/28 00:44:03;;;;;;;10.40;5.73;;;23.90;1.00;;;;;;8374156;28;20201;-65
2022/06/28 00:48:04;;;;;;;6.97;5.00;;;23.80;1.00;;;;;;8374461;28;20261;-65
2022/06/28 00:52:06;;;;;;;4.77;4.33;;;23.70;29.90;;;;;;8373607;28;20570;-65
2022/06/28 00:56:07;;;;;;;6.07;4.90;;;23.70;51.30;;;;;;8373984;28;20189;-64
2022/06/28 01:00:09;;;;;;;5.60;4.90;;;23.50;99.90;;;;;;8368201;28;20196;-66
2022/06/28 01:04:09;;;;;;;5.30;4.73;;;23.40;99.90;;;;;;8372478;28;20220;-65
2022/06/28 01:08:11;;;;;;;5.50;4.87;;;23.30;99.90;;;;;;8378994;28;20256;-69
2022/06/28 01:12:12;;;;;;;5.53;4.70;;;23.10;1.00;;;;;;8372275;28;20224;-65
2022/06/28 01:16:13;;;;;;;6.30;5.57;;;22.90;7.50;;;;;;8375045;28;20191;-66
2022/06/28 01:20:14;;;;;;;5.90;5.30;;;22.70;99.90;;;;;;8372978;28;20178;-65
2022/06/28 01:24:15;;;;;;;6.43;5.80;;;22.40;99.90;;;;;;8370150;28;20201;-67
2022/06/28 01:28:16;;;;;;;6.43;5.83;;;22.20;99.90;;;;;;8369310;28;20218;-66
2022/06/28 01:32:18;;;;;;;6.87;6.23;;;22.00;99.90;;;;;;8383623;28;20188;-66
2022/06/28 01:36:20;;;;;;;6.67;6.03;;;21.80;99.90;;;;;;8376794;28;20193;-65
2022/06/28 01:40:20;;;;;;;6.73;5.97;;;21.50;1.00;;;;;;8371782;28;20261;-67
2022/06/28 01:44:22;;;;;;;7.67;6.97;;;21.30;99.90;;;;;;8372170;28;20209;-69
2022/06/28 01:48:23;;;;;;;7.80;7.10;;;21.10;99.90;;;;;;8366223;28;20216;-67
2022/06/28 01:52:23;;;;;;;7.80;7.00;;;20.90;1.00;;;;;;8373262;28;20186;-67
2022/06/28 01:56:25;;;;;;;8.63;7.83;;;20.70;99.90;;;;;;8376722;28;20209;-67
2022/06/28 02:00:26;;;;;;;9.10;8.10;;;20.60;99.90;;;;;;8369551;28;20193;-68
2022/06/28 02:04:29;;;;;;;10.47;9.20;;;20.50;99.90;;;;;;8372135;28;20276;-67
2022/06/28 02:08:29;;;;;;;11.70;9.50;;;20.40;99.90;;;;;;8369876;28;20209;-67
2022/06/28 02:12:30;;;;;;;12.77;8.97;;;20.30;99.90;;;;;;8369966;28;20174;-67
2022/06/28 02:16:31;;;;;;;11.03;9.93;;;20.20;99.90;;;;;;8373143;28;20186;-66
2022/06/28 02:20:32;;;;;;;11.83;10.63;;;20.20;99.90;;;;;;8365803;28;20190;-66
2022/06/28 02:24:33;;;;;;;10.53;9.53;;;20.10;99.90;;;;;;8373035;28;20482;-66
2022/06/28 02:28:34;;;;;;;11.73;8.90;;;20.10;99.90;;;;;;8370425;28;20300;-67
2022/06/28 02:32:35;;;;;;;10.77;9.73;;;20.00;99.90;;;;;;8380001;28;20180;-65
2022/06/28 02:40:54;;;;;;;10.43;9.17;;;19.60;99.90;;;;;;8370541;28;20285;-65
2022/06/28 02:44:55;;;;;;;10.60;9.50;;;19.50;99.90;;;;;;8372705;28;20201;-66
2022/06/28 02:48:57;;;;;;;14.03;11.07;;;19.30;99.90;;;;;;8372583;28;20287;-64
2022/06/28 02:52:57;;;;;;;11.97;10.73;;;19.20;99.90;;;;;;8368233;28;20534;-66
2022/06/28 02:56:58;;;;;;;9.73;8.73;;;19.20;99.90;;;;;;8378683;28;20177;-67
2022/06/28 03:00:59;;;;;;;8.63;7.43;;;19.20;99.90;;;;;;8372372;28;20208;-65
2022/06/28 03:05:00;;;;;;;8.50;7.70;;;19.20;99.90;;;;;;8365471;28;20330;-65
2022/06/28 03:09:01;;;;;;;8.87;7.90;;;19.30;99.90;;;;;;8368044;28;20177;-70
2022/06/28 03:13:02;;;;;;;9.30;8.40;;;19.30;99.90;;;;;;8368957;28;20184;-69
2022/06/28 03:17:03;;;;;;;9.33;8.37;;;19.20;99.90;;;;;;8367996;28;20181;-67
2022/06/28 03:21:04;;;;;;;9.37;8.50;;;19.00;99.90;;;;;;8368633;28;20315;-66
2022/06/28 03:25:06;;;;;;;11.03;9.87;;;18.90;99.90;;;;;;8367651;28;20216;-64
2022/06/28 03:29:07;;;;;;;10.83;9.93;;;18.80;99.90;;;;;;8364066;28;20201;-68
2022/06/28 03:33:07;;;;;;;9.40;8.50;;;18.60;99.90;;;;;;8369502;28;20186;-67
2022/06/28 03:37:08;;;;;;;10.67;9.30;;;18.60;99.90;;;;;;8361258;28;20213;-64
2022/06/28 03:41:09;;;;;;;10.83;9.70;;;18.60;99.90;;;;;;8361445;28;20185;-65
2022/06/28 03:45:10;;;;;;;9.40;8.47;;;18.60;99.90;;;;;;8368788;28;20209;-64
2022/06/28 03:49:11;;;;;;;9.67;8.70;;;18.70;99.90;;;;;;8365863;28;20240;-71
2022/06/28 03:53:11;;;;;;;10.20;7.87;;;18.70;99.90;;;;;;8366040;28;20181;-64
2022/06/28 03:57:12;;;;;;;10.07;7.63;;;18.70;99.90;;;;;;8369864;28;20277;-67
2022/06/28 04:01:13;;;;;;;9.10;7.80;;;18.80;99.90;;;;;;8373463;28;20182;-64
2022/06/28 04:05:15;;;;;;;8.17;6.43;;;18.80;99.90;;;;;;8324921;28;1266924;-64
2022/06/28 04:09:19;;;;;;;7.70;7.00;;;18.90;99.90;;;;;;8370079;28;20186;-64
2022/06/28 04:13:20;;;;;;;6.63;6.03;;;19.00;99.90;;;;;;8363875;28;20567;-64
2022/06/28 04:17:21;;;;;;;7.50;6.70;;;19.10;99.90;;;;;;8371952;28;20189;-63
2022/06/28 04:21:22;;;;;;;7.77;6.90;;;19.10;99.90;;;;;;8365403;28;20227;-69
2022/06/28 04:25:23;;;;;;;7.50;6.70;;;19.10;99.90;;;;;;8364352;28;20240;-65
2022/06/28 04:29:24;;;;;;;8.63;7.17;;;19.20;99.90;;;;;;8364822;28;20451;-65
2022/06/28 04:33:25;;;;;;;8.10;7.20;;;19.20;99.90;;;;;;8370276;28;20235;-63
2022/06/28 04:37:26;;;;;;;8.43;7.30;;;19.10;99.90;;;;;;8371954;28;20278;-66
2022/06/28 04:41:26;;;;;;;8.93;8.07;;;19.20;99.90;;;;;;8371319;28;20190;-65
2022/06/28 04:45:27;;;;;;;7.87;7.17;;;19.30;99.90;;;;;;8363568;28;20229;-64
2022/06/28 04:49:28;;;;;;;8.20;7.40;;;19.50;99.90;;;;;;8364574;28;20178;-68
2022/06/28 04:53:29;;;;;;;6.77;6.17;;;19.70;99.90;;;;;;8374447;28;20196;-69
2022/06/28 04:57:29;;;;;;;7.13;6.40;;;20.00;99.90;;;;;;8373352;28;20200;-64
2022/06/28 05:01:30;;;;;;;7.17;6.47;;;20.10;99.90;;;;;;8377081;28;20189;-64
2022/06/28 05:05:31;;;;;;;6.93;6.23;;;19.90;99.90;;;;;;8376352;28;20213;-63
2022/06/28 05:09:32;;;;;;;8.00;6.97;;;19.70;99.90;;;;;;8381379;28;20257;-63
2022/06/28 05:13:33;;;;;;;8.00;7.20;;;19.50;99.90;;;;;;8374664;28;20246;-64
2022/06/28 05:17:33;;;;;;;7.97;7.27;;;19.40;99.90;;;;;;8375730;28;20177;-66
2022/06/28 05:21:34;;;;;;;8.80;7.43;;;19.40;99.90;;;;;;8374418;28;20215;-64
2022/06/28 05:25:35;;;;;;;7.63;6.83;;;19.30;99.90;;;;;;8373617;28;20304;-68
2022/06/28 05:29:36;;;;;;;8.50;7.73;;;19.30;99.90;;;;;;8371135;28;20209;-64
2022/06/28 05:33:37;;;;;;;9.97;7.17;;;19.30;99.90;;;;;;8375831;28;20205;-68
2022/06/28 05:37:38;;;;;;;8.43;6.90;;;19.10;99.90;;;;;;8366749;28;20535;-69
2022/06/28 05:41:41;;;;;;;8.53;7.73;;;19.10;99.90;;;;;;8379596;28;20538;-66
2022/06/28 05:45:42;;;;;;;7.77;7.07;;;19.10;99.90;;;;;;8379176;28;20216;-65
2022/06/28 05:49:43;;;;;;;8.27;7.57;;;19.20;99.90;;;;;;8369456;28;20174;-69
2022/06/28 05:53:44;;;;;;;8.53;7.73;;;19.30;99.90;;;;;;8370769;28;20181;-65
2022/06/28 05:57:45;;;;;;;8.70;7.90;;;19.30;99.90;;;;;;8372965;28;20190;-65
2022/06/28 06:01:45;;;;;;;10.63;9.57;;;19.30;99.90;;;;;;8380233;28;20219;-70
2022/06/28 06:05:46;;;;;;;11.17;10.07;;;19.30;99.90;;;;;;8380059;28;20223;-67
2022/06/28 06:09:47;;;;;;;11.23;10.13;;;19.20;99.90;;;;;;8374793;28;20320;-67
2022/06/28 06:13:48;;;;;;;10.57;9.50;;;19.10;99.90;;;;;;8369735;28;20197;-68
2022/06/28 06:17:49;;;;;;;10.87;9.17;;;19.00;99.90;;;;;;8377800;28;20185;-67
2022/06/28 06:21:50;;;;;;;10.77;9.77;;;18.90;99.90;;;;;;8381413;28;20297;-67
2022/06/28 06:25:50;;;;;;;11.00;9.87;;;18.80;99.90;;;;;;8376485;28;20205;-67
2022/06/28 06:29:51;;;;;;;10.60;9.57;;;18.60;99.90;;;;;;8373726;28;20232;-66
2022/06/28 06:33:52;;;;;;;9.27;8.47;;;18.60;99.90;;;;;;8374386;28;20542;-65
2022/06/28 06:38:00;;;;;;;9.43;8.53;;;18.60;99.90;;;;;;8372987;28;20246;-65
2022/06/28 06:42:01;;;;;;;9.90;8.90;;;18.50;99.90;;;;;;8370613;28;20212;-65
2022/06/28 06:46:01;;;;;;;8.43;7.63;;;18.50;99.90;;;;;;8366626;28;20238;-66
2022/06/28 06:50:08;;;;;;;8.90;8.00;;;18.50;99.90;;;;;;8371346;28;20227;-66
2022/06/28 06:54:09;;;;;;;9.77;8.87;;;18.50;99.90;;;;;;8371081;28;20190;-68
2022/06/28 06:58:09;;;;;;;9.23;8.23;;;18.60;99.90;;;;;;8371584;28;20272;-68
2022/06/28 07:02:10;;;;;;;9.67;8.77;;;18.70;99.90;;;;;;8380964;28;20184;-70
2022/06/28 07:06:13;;;;;;;9.53;8.63;;;18.90;99.90;;;;;;8377247;28;20217;-65
2022/06/28 07:10:13;;;;;;;10.53;9.50;;;19.10;99.90;;;;;;8368853;28;20181;-67
2022/06/28 07:14:14;;;;;;;8.90;8.03;;;19.30;99.90;;;;;;8370770;28;20197;-63
2022/06/28 07:18:15;;;;;;;9.97;9.07;;;19.50;99.90;;;;;;8372090;28;20184;-66
2022/06/28 07:22:16;;;;;;;9.13;8.23;;;19.60;99.90;;;;;;8370267;28;20223;-64
2022/06/28 07:26:18;;;;;;;9.40;8.50;;;19.60;99.90;;;;;;8372556;28;20217;-66
2022/06/28 07:30:19;;;;;;;9.97;9.07;;;19.80;99.90;;;;;;8371162;28;20237;-67
2022/06/28 07:34:20;;;;;;;9.30;8.50;;;19.90;99.90;;;;;;8371068;28;20197;-67
2022/06/28 07:38:20;;;;;;;9.33;8.53;;;19.80;99.90;;;;;;8370924;28;20185;-69
2022/06/28 07:42:21;;;;;;;10.20;9.10;;;19.80;99.90;;;;;;8372063;28;20196;-67
2022/06/28 07:46:25;;;;;;;10.40;9.50;;;19.80;99.90;;;;;;8372258;28;20614;-69
2022/06/28 07:54:45;;;;;;;12.30;11.07;;;20.30;99.90;;;;;;8369861;28;20280;-71
2022/06/28 07:58:46;;;;;;;10.87;9.90;;;20.80;99.90;;;;;;8378893;28;20182;-67
2022/06/28 08:02:47;;;;;;;12.17;11.07;;;21.30;99.90;;;;;;8370360;28;20235;-69
2022/06/28 08:06:48;;;;;;;11.87;10.83;;;21.40;99.90;;;;;;8364618;28;20218;-69
2022/06/28 08:10:49;;;;;;;11.27;10.27;;;21.80;99.90;;;;;;8368466;28;20177;-64
2022/06/28 08:14:49;;;;;;;11.20;10.20;;;22.00;99.90;;;;;;8373247;28;20258;-68
2022/06/28 08:18:51;;;;;;;11.47;9.67;;;22.20;99.90;;;;;;8376702;28;20186;-69
2022/06/28 08:22:51;;;;;;;11.93;10.73;;;22.20;99.90;;;;;;8372718;28;20239;-69
2022/06/28 08:26:53;;;;;;;11.73;10.50;;;22.30;1.00;;;;;;8369131;28;20213;-69
2022/06/28 08:30:54;;;;;;;9.70;8.80;;;22.40;1.00;;;;;;8366728;28;20206;-69
2022/06/28 08:34:55;;;;;;;8.80;8.00;;;22.60;1.00;;;;;;8366140;28;20190;-70
2022/06/28 08:38:56;;;;;;;7.80;7.10;;;23.20;99.90;;;;;;8372195;28;20191;-68
2022/06/28 08:42:59;;;;;;;8.17;7.37;;;23.10;1.00;;;;;;8371928;28;20196;-67
2022/06/28 08:47:00;;;;;;;7.30;6.70;;;22.50;99.90;;;;;;8372674;28;20217;-67
2022/06/28 08:51:03;;;;;;;7.17;6.57;;;22.50;65.90;;;;;;8376226;28;20186;-68
2022/06/28 08:55:06;;;;;;;7.03;6.30;;;22.70;1.00;;;;;;8378614;28;20249;-67
2022/06/28 08:59:07;;;;;;;8.13;6.93;;;23.10;1.00;;;;;;8378558;28;20213;-68
2022/06/28 09:03:08;;;;;;;8.17;7.47;;;23.50;1.00;;;;;;8372148;28;20256;-68
2022/06/28 09:07:09;;;;;;;9.57;8.00;;;23.30;1.00;;;;;;8379467;28;20189;-67
2022/06/28 09:11:09;;;;;;;8.90;8.03;;;22.60;85.20;;;;;;8376007;28;20185;-69
2022/06/28 09:15:10;;;;;;;8.70;7.80;;;22.20;99.90;;;;;;8369910;28;20186;-66
2022/06/28 09:19:11;;;;;;;8.40;7.70;;;21.70;99.90;;;;;;8375542;28;20190;-67
2022/06/28 09:23:34;;;;;;;8.47;7.77;;;21.70;1.00;;;;;;8367899;28;20193;-68
2022/06/28 09:27:37;;;;;;;8.30;7.60;;;21.50;1.00;;;;;;8371605;28;20203;-65
2022/06/28 09:31:38;;;;;;;10.77;7.47;;;21.40;39.80;;;;;;8381063;28;20185;-70
2022/06/28 09:35:51;;;;;;;8.30;7.60;;;21.60;1.00;;;;;;8380559;28;20556;-68
2022/06/28 09:39:52;;;;;;;8.33;7.63;;;21.30;1.00;;;;;;8378680;28;20264;-66
2022/06/28 09:43:58;;;;;;;7.43;6.73;;;21.30;99.90;;;;;;8371270;28;20270;-69
2022/06/28 09:47:59;;;;;;;7.47;6.77;;;21.60;1.00;;;;;;8374399;28;20238;-66
2022/06/28 09:52:01;;;;;;;7.30;6.63;;;22.10;99.90;;;;;;8368327;28;20542;-67
2022/06/28 09:56:05;;;;;;;7.57;6.77;;;22.30;1.00;;;;;;8369355;28;20185;-66
2022/06/28 10:00:07;;;;;;;7.23;6.63;;;22.40;1.00;;;;;;8372250;28;20189;-71
2022/06/28 10:04:08;;;;;;;7.50;6.90;;;22.80;1.00;;;;;;8381109;28;20228;-68
2022/06/28 10:08:10;;;;;;;7.60;6.40;;;23.00;99.90;;;;;;8371615;28;20196;-68
2022/06/28 10:17:05;;;;;;;6.03;5.47;;;22.50;1.00;;;;;;8370213;28;20208;-68
2022/06/28 10:21:06;;;;;;;5.73;5.33;;;22.90;99.90;;;;;;8371671;28;20247;-67
2022/06/28 10:25:23;;;;;;;6.40;5.90;;;23.20;99.90;;;;;;8369393;28;20212;-68
2022/06/28 10:29:24;;;;;;;6.10;5.60;;;23.50;99.90;;;;;;8369726;28;20205;-67
2022/06/28 10:33:41;;;;;;;6.00;5.53;;;23.60;99.90;;;;;;8376539;28;20246;-66
2022/06/28 10:38:21;;;;;;;5.30;4.80;;;23.50;99.90;;;;;;8370366;28;20178;-69
2022/06/28 10:42:22;;;;;;;7.00;6.33;;;23.70;99.90;;;;;;8373987;28;20206;-69
2022/06/28 10:46:26;;;;;;;6.27;5.77;;;23.30;99.90;;;;;;8367065;28;20217;-69
2022/06/28 10:50:27;;;;;;;6.37;5.67;;;23.50;99.90;;;;;;8372583;28;20188;-69
2022/06/28 10:54:28;;;;;;;6.67;6.07;;;23.80;99.90;;;;;;8372148;28;20204;-67
2022/06/28 10:58:29;;;;;;;7.00;6.40;;;24.00;94.30;;;;;;8374900;28;20185;-67
2022/06/28 11:02:51;;;;;;;6.60;6.10;;;24.00;99.90;;;;;;8372121;28;20193;-71
2022/06/28 11:07:04;;;;;;;6.70;6.20;;;24.20;99.90;;;;;;8369554;28;20213;-66
2022/06/28 11:11:06;;;;;;;6.77;6.17;;;24.20;99.90;;;;;;8369449;28;20213;-70
2022/06/28 11:15:37;;;;;;;6.77;6.27;;;24.00;99.90;;;;;;8363222;28;20267;-68
2022/06/28 11:19:38;;;;;;;7.07;6.47;;;24.50;99.90;;;;;;8372917;28;20250;-69
2022/06/28 11:23:40;;;;;;;6.50;5.90;;;24.90;28.00;;;;;;8371491;28;20222;-71
2022/06/28 11:28:07;;;;;;;7.13;6.27;;;24.50;49.40;;;;;;8370056;28;20224;-66
2022/06/28 11:32:16;;;;;;;6.37;5.87;;;24.50;59.10;;;;;;8366469;28;20494;-70
2022/06/28 11:36:35;;;;;;;6.27;5.77;;;24.30;9.00;;;;;;8371301;28;20248;-65
2022/06/28 11:40:41;;;;;;;7.23;5.93;;;24.40;32.60;;;;;;8368110;28;20222;-68
2022/06/28 11:44:42;;;;;;;6.33;5.83;;;24.40;35.20;;;;;;8374447;28;20306;-67
2022/06/28 11:48:43;;;;;;;6.07;5.60;;;24.70;13.60;;;;;;8374855;28;20272;-70
2022/06/28 11:52:55;;;;;;;6.03;5.60;;;25.00;28.30;;;;;;8380362;28;20185;-69
2022/06/28 11:56:56;;;;;;;5.47;4.97;;;25.20;1.00;;;;;;8375589;28;20282;-73
2022/06/28 12:01:03;;;;;;;5.50;5.00;;;25.40;1.00;;;;;;8374555;28;20195;-66
2022/06/28 12:05:05;;;;;;;6.50;5.17;;;24.70;1.00;;;;;;8367909;28;20285;-70
2022/06/28 12:09:08;;;;;;;6.03;5.57;;;24.60;1.00;;;;;;8370331;28;20192;-69
2022/06/28 12:13:13;;;;;;;6.00;5.23;;;24.40;57.80;;;;;;8368588;28;20193;-71
2022/06/28 12:17:14;;;;;;;5.40;4.90;;;24.50;35.20;;;;;;8382696;28;20180;-72
2022/06/28 12:21:15;;;;;;;5.40;5.00;;;24.50;73.60;;;;;;8378661;28;20189;-66
2022/06/28 12:25:16;;;;;;;5.17;4.77;;;24.50;72.60;;;;;;8372919;28;20311;-67
2022/06/28 12:29:17;;;;;;;4.90;4.50;;;24.70;16.00;;;;;;8374244;28;20284;-65
2022/06/28 12:33:17;;;;;;;6.07;4.73;;;24.70;1.00;;;;;;8374929;28;20181;-70
2022/06/28 12:37:18;;;;;;;5.07;4.67;;;25.10;1.00;;;;;;8381741;28;20189;-69
2022/06/28 12:41:19;;;;;;;5.07;4.57;;;24.90;1.00;;;;;;8377679;28;20177;-67
2022/06/28 12:45:20;;;;;;;5.33;4.83;;;24.70;1.00;;;;;;8377055;28;20631;-66
2022/06/28 12:49:21;;;;;;;5.93;4.97;;;24.40;4.60;;;;;;8380280;28;20691;-71
2022/06/28 12:53:22;;;;;;;4.90;4.50;;;24.40;46.00;;;;;;8376710;28;20178;-70
2022/06/28 12:57:23;;;;;;;5.23;3.70;;;24.50;12.00;;;;;;8374072;28;20177;-67
2022/06/28 13:01:24;;;;;;;4.70;4.30;;;24.40;1.00;;;;;;8377362;28;20190;-73
2022/06/28 13:05:25;;;;;;;4.23;3.83;;;24.20;19.40;;;;;;8375011;28;20219;-66
2022/06/28 13:09:25;;;;;;;4.47;4.07;;;24.10;45.40;;;;;;8373368;28;20192;-74
2022/06/28 13:13:28;;;;;;;5.77;3.70;;;24.20;58.80;;;;;;8372773;28;20184;-74
2022/06/28 13:17:29;;;;;;;4.40;3.03;;;24.80;1.00;;;;;;8378107;28;20200;-67
2022/06/28 13:21:29;;;;;;;4.47;3.10;;;25.40;1.00;;;;;;8381830;28;20216;-65
2022/06/28 13:25:30;;;;;;;3.67;3.17;;;25.20;1.00;;;;;;8375493;28;20213;-71
2022/06/28 13:29:31;;;;;;;3.60;2.87;;;25.20;1.00;;;;;;8366010;28;20209;-72
2022/06/28 13:33:32;;;;;;;3.60;3.07;;;25.40;1.00;;;;;;8372595;28;20182;-67
2022/06/28 13:37:33;;;;;;;4.30;3.17;;;25.50;1.00;;;;;;8378518;28;20174;-72
2022/06/28 13:41:34;;;;;;;3.93;3.40;;;25.60;1.00;;;;;;8376121;28;20212;-68
2022/06/28 13:45:35;;;;;;;5.23;3.30;;;25.20;1.00;;;;;;8368559;28;20300;-67
2022/06/28 13:49:35;;;;;;;5.33;3.90;;;24.90;1.00;;;;;;8375505;28;20204;-68
2022/06/28 13:53:37;;;;;;;5.63;4.00;;;24.90;1.00;;;;;;8385545;28;20187;-72
2022/06/28 13:57:39;;;;;;;3.70;3.40;;;24.70;1.00;;;;;;8381940;28;20186;-68
2022/06/28 14:01:40;;;;;;;3.63;3.33;;;25.00;1.00;;;;;;8377837;28;20186;-71
2022/06/28 14:05:45;;;;;;;3.73;3.43;;;25.10;1.00;;;;;;8376650;28;20210;-73
2022/06/28 14:09:46;;;;;;;5.23;3.70;;;25.40;1.00;;;;;;8374293;28;20186;-68
2022/06/28 14:13:46;;;;;;;4.53;3.43;;;25.40;1.00;;;;;;8377051;28;20238;-69
2022/06/28 14:17:47;;;;;;;3.80;3.50;;;25.30;1.00;;;;;;8376207;28;20186;-71
2022/06/28 14:21:48;;;;;;;3.63;3.33;;;25.30;1.00;;;;;;8372089;28;20189;-70
2022/06/28 14:25:49;;;;;;;4.73;3.03;;;25.40;1.00;;;;;;8374161;28;20208;-69
2022/06/28 14:29:51;;;;;;;3.13;2.83;;;25.40;1.00;;;;;;8375673;28;20216;-68
2022/06/28 14:33:52;;;;;;;5.73;2.90;;;25.60;1.00;;;;;;8374762;28;20565;-68
2022/06/28 14:37:53;;;;;;;3.20;2.90;;;26.00;1.00;;;;;;8376412;28;20217;-68
2022/06/28 14:41:54;;;;;;;3.87;3.23;;;26.00;1.00;;;;;;8368932;28;20181;-68
2022/06/28 14:45:55;;;;;;;4.23;2.70;;;25.60;1.00;;;;;;8367876;28;20288;-67
2022/06/28 14:49:56;;;;;;;5.20;2.87;;;25.30;1.00;;;;;;8368531;28;20182;-71
2022/06/28 14:53:56;;;;;;;2.93;2.63;;;25.30;1.00;;;;;;8364216;28;20193;-68
2022/06/28 14:57:57;;;;;;;4.80;2.87;;;25.90;1.00;;;;;;8377761;28;20184;-68
2022/06/28 15:01:58;;;;;;;2.85;2.55;;;26.30;1.00;;;;;;8369654;28;20606;-70
2022/06/28 15:05:59;;;;;;;4.70;2.05;;;26.40;1.00;;;;;;8371900;28;20476;-71
2022/06/28 15:10:00;;;;;;;6.63;2.63;;;26.00;1.00;;;;;;8368507;28;20290;-68
2022/06/28 15:14:01;;;;;;;3.33;1.93;;;25.70;1.00;;;;;;8374296;28;20189;-66
2022/06/28 15:18:02;;;;;;;2.10;1.90;;;25.30;1.00;;;;;;8371097;28;20206;-72
2022/06/28 15:30:53;;;;;;;2.13;1.80;;;25.00;1.00;;;;;;8371531;28;20280;-67
2022/06/28 15:34:54;;;;;;;1.93;1.83;;;24.80;1.00;;;;;;8374717;28;20246;-65
2022/06/28 15:38:55;;;;;;;1.97;1.87;;;24.90;1.00;;;;;;8362998;28;20180;-67
2022/06/28 15:42:56;;;;;;;1.97;1.63;;;25.00;1.00;;;;;;8367520;28;20181;-69
2022/06/28 15:46:57;;;;;;;2.30;2.10;;;24.90;1.00;;;;;;8373902;28;20215;-67
2022/06/28 15:50:58;;;;;;;3.47;1.80;;;24.80;1.00;;;;;;8370944;28;20189;-69
2022/06/28 15:54:58;;;;;;;2.10;1.90;;;24.70;1.00;;;;;;8364809;28;20188;-67
2022/06/28 15:58:59;;;;;;;2.10;1.90;;;24.60;1.00;;;;;;8367387;28;20212;-67
2022/06/28 16:03:00;;;;;;;1.63;1.53;;;24.70;1.00;;;;;;8373092;28;20184;-69
2022/06/28 16:07:01;;;;;;;1.50;1.40;;;24.80;1.00;;;;;;8377712;28;20208;-65
2022/06/28 16:11:02;;;;;;;2.53;1.30;;;25.20;1.00;;;;;;8373489;28;20170;-70
2022/06/28 16:15:05;;;;;;;1.63;1.53;;;25.10;1.00;;;;;;8366719;28;20194;-72
2022/06/28 16:19:06;;;;;;;2.33;1.40;;;25.00;1.00;;;;;;8370165;28;20193;-69
2022/06/28 16:23:08;;;;;;;1.97;1.40;;;25.00;1.00;;;;;;8368327;28;20215;-71
2022/06/28 16:27:08;;;;;;;1.57;1.47;;;24.90;1.00;;;;;;8370545;28;20255;-70
2022/06/28 16:31:09;;;;;;;2.03;1.40;;;24.90;1.00;;;;;;8371036;28;20178;-72
2022/06/28 16:35:14;;;;;;;3.00;1.60;;;25.10;1.00;;;;;;8368851;28;20186;-71
2022/06/28 16:39:14;;;;;;;1.50;1.40;;;25.50;1.00;;;;;;8371010;28;20189;-72
2022/06/28 16:43:17;;;;;;;2.70;2.50;;;25.60;1.00;;;;;;8371920;28;20311;-66
2022/06/28 16:47:19;;;;;;;2.63;2.30;;;25.70;1.00;;;;;;8371191;28;20209;-69
2022/06/28 16:51:20;;;;;;;2.43;2.20;;;25.80;1.00;;;;;;8366735;28;20229;-69
2022/06/28 16:55:21;;;;;;;2.00;1.80;;;25.70;1.00;;;;;;8368413;28;20185;-68
2022/06/28 16:59:22;;;;;;;3.50;2.03;;;25.60;1.00;;;;;;8365200;28;20209;-71
2022/06/28 17:03:23;;;;;;;1.52;1.40;;;25.80;1.00;;;;;;8377614;28;20197;-69
2022/06/28 17:07:24;;;;;;;2.33;1.70;;;25.70;1.00;;;;;;8373278;28;20210;-71
2022/06/28 17:11:25;;;;;;;2.72;2.15;;;25.80;1.00;;;;;;8370841;28;20189;-68
2022/06/28 17:15:26;;;;;;;1.70;1.60;;;25.80;1.00;;;;;;8369089;28;20306;-70
2022/06/28 17:19:27;;;;;;;1.45;1.35;;;25.70;1.00;;;;;;8372634;28;20177;-67
2022/06/28 17:23:27;;;;;;;1.93;1.60;;;25.50;1.00;;;;;;8378960;28;20185;-70
2022/06/28 17:27:28;;;;;;;2.30;2.10;;;25.70;1.00;;;;;;8369681;28;20208;-70
2022/06/28 17:31:29;;;;;;;2.15;1.60;;;25.90;1.00;;;;;;8372520;28;20238;-68
2022/06/28 17:35:30;;;;;;;1.90;1.70;;;25.90;1.00;;;;;;8369955;28;20185;-69
2022/06/28 17:39:32;;;;;;;2.10;1.77;;;25.80;1.00;;;;;;8371730;28;20264;-70
2022/06/28 17:43:33;;;;;;;1.87;1.63;;;25.60;1.00;;;;;;8372333;28;20189;-65
2022/06/28 17:47:34;;;;;;;1.60;1.50;;;25.50;1.00;;;;;;8379515;28;20185;-66
2022/06/28 17:51:35;;;;;;;2.00;1.80;;;25.30;1.00;;;;;;8377414;28;20181;-68
2022/06/28 17:55:36;;;;;;;2.33;1.40;;;25.40;1.00;;;;;;8374399;28;20220;-66
2022/06/28 17:59:38;;;;;;;2.97;2.07;;;25.40;1.00;;;;;;8370534;28;20192;-68
2022/06/28 18:03:39;;;;;;;1.90;1.37;;;25.40;1.00;;;;;;8374694;28;20190;-69
2022/06/28 18:07:40;;;;;;;2.17;1.10;;;26.10;1.00;;;;;;8371397;28;20182;-68
2022/06/28 18:11:41;;;;;;;1.67;1.40;;;26.40;1.00;;;;;;8370587;28;20181;-69
2022/06/28 18:15:42;;;;;;;2.00;1.70;;;26.80;1.00;;;;;;8376633;28;20185;-66
2022/06/28 18:19:43;;;;;;;0.93;0.88;;;27.80;1.00;;;;;;8380490;28;20242;-67
2022/06/28 18:23:44;;;;;;;2.58;1.42;;;28.70;1.00;;;;;;8370104;28;20268;-70
2022/06/28 18:27:45;;;;;;;1.92;1.25;;;28.40;1.00;;;;;;8375964;28;20196;-70
2022/06/28 18:31:46;;;;;;;1.67;1.33;;;27.60;1.00;;;;;;8381131;28;20212;-68
2022/06/28 18:35:49;;;;;;;3.10;1.70;;;26.80;1.00;;;;;;8385197;28;20181;-71
2022/06/28 18:39:50;;;;;;;2.72;1.63;;;26.20;1.00;;;;;;8369305;28;20416;-70
2022/06/28 18:43:51;;;;;;;1.30;1.20;;;26.10;1.00;;;;;;8371525;28;20185;-66
2022/06/28 18:47:54;;;;;;;2.40;1.77;;;26.50;1.00;;;;;;8367921;28;20186;-70
2022/06/28 18:51:55;;;;;;;4.75;3.13;;;27.00;1.00;;;;;;8373301;28;20174;-71
2022/06/28 18:55:56;;;;;;;2.30;1.40;;;26.90;1.00;;;;;;8379554;28;20223;-69
2022/06/28 18:59:57;;;;;;;2.38;1.75;;;26.50;1.00;;;;;;8377526;28;20208;-68
2022/06/28 19:03:58;;;;;;;2.63;1.83;;;26.00;1.00;;;;;;8373664;28;20219;-69
2022/06/28 19:07:59;;;;;;;2.43;1.97;;;25.30;1.00;;;;;;8373313;28;20192;-70
2022/06/28 19:12:00;;;;;;;2.07;1.63;;;24.70;1.00;;;;;;8374298;28;20213;-70
2022/06/28 19:16:01;;;;;;;2.40;1.73;;;24.30;1.00;;;;;;8366507;28;20676;-70
2022/06/28 19:20:03;;;;;;;1.90;1.40;;;24.00;1.00;;;;;;8371840;28;20200;-69
2022/06/28 19:24:04;;;;;;;1.27;1.17;;;23.70;1.00;;;;;;8366937;28;20202;-69
2022/06/28 19:28:05;;;;;;;2.00;1.73;;;23.50;11.50;;;;;;8371514;28;20196;-67
2022/06/28 19:32:07;;;;;;;2.30;2.00;;;23.40;32.30;;;;;;8368049;28;20223;-66
2022/06/28 19:36:08;;;;;;;2.57;2.17;;;23.20;58.70;;;;;;8373782;28;20181;-66
2022/06/28 19:40:10;;;;;;;2.30;1.47;;;23.10;99.50;;;;;;8374540;28;20186;-67
2022/06/28 19:44:12;;;;;;;1.10;0.93;;;23.00;99.90;;;;;;8366925;28;20232;-66
2022/06/28 19:48:13;;;;;;;2.90;2.00;;;22.90;99.90;;;;;;8368477;28;20193;-64
2022/06/28 19:52:14;;;;;;;3.67;2.73;;;22.80;99.90;;;;;;8367625;28;20196;-68
2022/06/28 19:56:15;;;;;;;2.10;1.73;;;22.70;99.90;;;;;;8368286;28;20196;-66
2022/06/28 20:00:16;;;;;;;2.30;1.70;;;22.60;99.90;;;;;;8370288;28;20308;-68
2022/06/28 20:04:17;;;;;;;1.77;1.60;;;22.60;99.90;;;;;;8369060;28;20219;-69
2022/06/28 20:08:18;;;;;;;3.20;1.73;;;22.50;99.90;;;;;;8371099;28;20182;-68
2022/06/28 20:12:19;;;;;;;2.60;1.70;;;22.40;99.90;;;;;;8377224;28;20180;-68
2022/06/28 20:16:21;;;;;;;2.33;1.80;;;22.40;99.90;;;;;;8372339;28;20648;-67
2022/06/28 20:20:23;;;;;;;2.37;1.50;;;22.30;99.90;;;;;;8374073;28;20681;-68
2022/06/28 20:24:24;;;;;;;1.70;1.47;;;22.10;99.90;;;;;;8370069;28;20242;-68
2022/06/28 20:28:25;;;;;;;3.17;1.90;;;22.10;99.90;;;;;;8371069;28;20205;-70
2022/06/28 20:32:26;;;;;;;3.47;2.80;;;21.90;99.90;;;;;;8369215;28;20188;-69
2022/06/28 20:36:27;;;;;;;3.97;2.40;;;21.70;1.00;;;;;;8381296;28;20181;-69
2022/06/28 20:40:28;;;;;;;3.77;2.53;;;21.40;1.00;;;;;;8370904;28;20193;-69
2022/06/28 20:44:29;;;;;;;2.73;2.53;;;21.10;1.00;;;;;;8379173;28;20208;-69
2022/06/28 20:48:30;;;;;;;4.30;2.97;;;20.80;1.00;;;;;;8383793;28;20182;-70
2022/06/28 20:52:31;;;;;;;3.67;2.70;;;20.60;5.10;;;;;;8376635;28;20177;-69
2022/06/28 20:56:32;;;;;;;2.53;2.20;;;20.30;33.40;;;;;;8377304;28;20239;-69
2022/06/28 21:00:33;;;;;;;2.70;2.50;;;20.10;99.90;;;;;;8379057;28;20349;-68
2022/06/28 21:04:34;;;;;;;3.77;2.30;;;19.90;99.90;;;;;;8377564;28;20213;-69
2022/06/28 21:08:35;;;;;;;2.30;2.07;;;19.60;99.90;;;;;;8382754;28;20197;-68
2022/06/28 21:12:35;;;;;;;2.23;2.03;;;19.40;1.00;;;;;;8373902;28;20319;-68
2022/06/28 21:16:36;;;;;;;2.63;1.93;;;19.30;99.90;;;;;;8372917;28;20181;-69
2022/06/28 21:20:37;;;;;;;2.33;2.13;;;19.10;99.90;;;;;;8377771;28;20566;-68
2022/06/28 21:24:38;;;;;;;3.60;2.30;;;19.00;99.90;;;;;;8379266;28;20197;-68
2022/06/28 21:28:39;;;;;;;3.23;2.50;;;18.90;99.90;;;;;;8379446;28;20240;-69
2022/06/28 21:32:40;;;;;;;2.30;2.10;;;18.80;1.00;;;;;;8374950;28;20182;-68